sensor_id;sensor_type;location;lat;lon;timestamp;temperature;humidity
26621;DHT22;14253;44.840;10.444;2024-02-15T00:01:01;6.50;99.90
26621;DHT22;14253;44.840;10.444;2024-02-15T00:03:27;6.50;99.90
26621;DHT22;14253;44.840;10.444;2024-02-15T00:05:53;6.40;99.90
26621;DHT22;14253;44.840;10.444;2024-02-15T00:08:19;6.30;99.90
26621;DHT22;14253;44.840;10.444;2024-02-15T00:10:46;6.20;99.90
26621;DHT22;14253;44.840;10.444;2024-02-15T00:13:13;6.20;99.90
26621;DHT22;14253;44.840;10.444;2024-02-15T00:15:39;6.20;99.90
26621;DHT22;14253;44.840;10.444;2024-02-15T00:18:05;6.20;99.90
26621;DHT22;14253;44.840;10.444;2024-02-15T00:32:56;6.00;99.90
26621;DHT22;14253;44.840;10.444;2024-02-15T00:35:22;6.00;99.90
26621;DHT22;14253;44.840;10.444;2024-02-15T00:37:48;6.00;99.90
26621;DHT22;14253;44.840;10.444;2024-02-15T00:40:15;6.00;99.90
26621;DHT22;14253;44.840;10.444;2024-02-15T00:42:42;5.90;99.90
26621;DHT22;14253;44.840;10.444;2024-02-15T00:45:09;5.80;99.90
26621;DHT22;14253;44.840;10.444;2024-02-15T00:47:35;5.80;99.90
26621;DHT22;14253;44.840;10.444;2024-02-15T00:50:01;5.80;99.90
26621;DHT22;14253;44.840;10.444;2024-02-15T00:52:28;5.60;99.90
26621;DHT22;14253;44.840;10.444;2024-02-15T00:54:56;5.60;99.90
26621;DHT22;14253;44.840;10.444;2024-02-15T00:57:22;5.50;99.90
26621;DHT22;14253;44.840;10.444;2024-02-15T00:59:48;5.50;99.90
26621;DHT22;14253;44.840;10.444;2024-02-15T01:02:14;5.50;99.90
26621;DHT22;14253;44.840;10.444;2024-02-15T01:04:40;5.50;99.90
26621;DHT22;14253;44.840;10.444;2024-02-15T01:07:08;5.50;99.90
26621;DHT22;14253;44.840;10.444;2024-02-15T01:09:34;5.40;99.90
26621;DHT22;14253;44.840;10.444;2024-02-15T01:12:00;5.30;99.90
26621;DHT22;14253;44.840;10.444;2024-02-15T01:14:27;5.30;99.90
26621;DHT22;14253;44.840;10.444;2024-02-15T01:16:56;5.20;99.90
26621;DHT22;14253;44.840;10.444;2024-02-15T01:19:22;5.30;99.90
26621;DHT22;14253;44.840;10.444;2024-02-15T01:21:48;5.30;99.90
26621;DHT22;14253;44.840;10.444;2024-02-15T01:28:42;5.40;99.90
26621;DHT22;14253;44.840;10.444;2024-02-15T01:31:10;5.30;99.90
26621;DHT22;14253;44.840;10.444;2024-02-15T01:33:37;5.20;99.90
26621;DHT22;14253;44.840;10.444;2024-02-15T01:40:16;5.00;99.90
26621;DHT22;14253;44.840;10.444;2024-02-15T01:42:44;4.90;99.90
26621;DHT22;14253;44.840;10.444;2024-02-15T01:45:11;4.80;99.90
26621;DHT22;14253;44.840;10.444;2024-02-15T01:47:38;4.80;99.90
26621;DHT22;14253;44.840;10.444;2024-02-15T01:50:06;4.80;99.90
26621;DHT22;14253;44.840;10.444;2024-02-15T01:52:33;4.70;99.90
26621;DHT22;14253;44.840;10.444;2024-02-15T01:55:03;4.70;99.90
26621;DHT22;14253;44.840;10.444;2024-02-15T01:57:36;4.70;99.90
26621;DHT22;14253;44.840;10.444;2024-02-15T02:00:07;4.60;99.90
26621;DHT22;14253;44.840;10.444;2024-02-15T02:02:35;4.60;99.90
26621;DHT22;14253;44.840;10.444;2024-02-15T02:05:02;4.60;99.90
26621;DHT22;14253;44.840;10.444;2024-02-15T02:07:28;4.60;99.90
26621;DHT22;14253;44.840;10.444;2024-02-15T02:09:55;4.70;99.90
26621;DHT22;14253;44.840;10.444;2024-02-15T02:12:21;4.70;99.90
26621;DHT22;14253;44.840;10.444;2024-02-15T02:14:48;4.70;99.90
26621;DHT22;14253;44.840;10.444;2024-02-15T02:17:15;4.60;99.90
26621;DHT22;14253;44.840;10.444;2024-02-15T02:19:42;4.70;99.90
26621;DHT22;14253;44.840;10.444;2024-02-15T02:22:09;4.60;99.90
26621;DHT22;14253;44.840;10.444;2024-02-15T02:27:19;4.60;99.90
26621;DHT22;14253;44.840;10.444;2024-02-15T02:29:46;4.60;99.90
26621;DHT22;14253;44.840;10.444;2024-02-15T02:32:12;4.70;99.90
26621;DHT22;14253;44.840;10.444;2024-02-15T02:34:38;4.70;99.90
26621;DHT22;14253;44.840;10.444;2024-02-15T02:37:06;4.70;99.90
26621;DHT22;14253;44.840;10.444;2024-02-15T02:39:34;4.70;99.90
26621;DHT22;14253;44.840;10.444;2024-02-15T02:42:00;4.70;99.90
26621;DHT22;14253;44.840;10.444;2024-02-15T02:44:26;4.60;99.90
26621;DHT22;14253;44.840;10.444;2024-02-15T02:46:52;4.50;99.90
26621;DHT22;14253;44.840;10.444;2024-02-15T02:49:18;4.40;99.90
26621;DHT22;14253;44.840;10.444;2024-02-15T02:51:44;4.40;99.90
26621;DHT22;14253;44.840;10.444;2024-02-15T02:54:10;4.30;99.90
26621;DHT22;14253;44.840;10.444;2024-02-15T02:56:36;4.30;99.90
26621;DHT22;14253;44.840;10.444;2024-02-15T02:59:02;4.30;99.90
26621;DHT22;14253;44.840;10.444;2024-02-15T03:01:29;4.30;99.90
26621;DHT22;14253;44.840;10.444;2024-02-15T03:03:56;4.30;99.90
26621;DHT22;14253;44.840;10.444;2024-02-15T03:06:22;4.30;99.90
26621;DHT22;14253;44.840;10.444;2024-02-15T03:08:50;4.40;99.90
26621;DHT22;14253;44.840;10.444;2024-02-15T03:11:23;4.40;99.90
26621;DHT22;14253;44.840;10.444;2024-02-15T03:13:49;4.30;99.90
26621;DHT22;14253;44.840;10.444;2024-02-15T03:16:15;4.20;99.90
26621;DHT22;14253;44.840;10.444;2024-02-15T03:18:42;4.20;99.90
26621;DHT22;14253;44.840;10.444;2024-02-15T03:21:09;4.00;99.90
26621;DHT22;14253;44.840;10.444;2024-02-15T03:23:37;3.90;99.90
26621;DHT22;14253;44.840;10.444;2024-02-15T03:26:03;3.80;99.90
26621;DHT22;14253;44.840;10.444;2024-02-15T03:28:31;3.80;99.90
26621;DHT22;14253;44.840;10.444;2024-02-15T03:30:58;3.80;99.90
26621;DHT22;14253;44.840;10.444;2024-02-15T03:33:26;3.80;99.90
26621;DHT22;14253;44.840;10.444;2024-02-15T03:35:58;3.80;99.90
26621;DHT22;14253;44.840;10.444;2024-02-15T03:38:27;3.70;99.90
26621;DHT22;14253;44.840;10.444;2024-02-15T03:40:55;3.70;99.90
26621;DHT22;14253;44.840;10.444;2024-02-15T03:43:21;3.80;99.90
26621;DHT22;14253;44.840;10.444;2024-02-15T03:45:49;3.80;99.90
26621;DHT22;14253;44.840;10.444;2024-02-15T03:48:15;3.90;99.90
26621;DHT22;14253;44.840;10.444;2024-02-15T03:50:41;4.00;99.90
26621;DHT22;14253;44.840;10.444;2024-02-15T03:53:09;4.00;99.90
26621;DHT22;14253;44.840;10.444;2024-02-15T03:55:36;4.00;99.90
26621;DHT22;14253;44.840;10.444;2024-02-15T03:58:03;4.00;99.90
26621;DHT22;14253;44.840;10.444;2024-02-15T04:00:28;4.00;99.90
26621;DHT22;14253;44.840;10.444;2024-02-15T04:02:55;4.00;99.90
26621;DHT22;14253;44.840;10.444;2024-02-15T04:05:22;3.90;99.90
26621;DHT22;14253;44.840;10.444;2024-02-15T04:07:48;3.80;99.90
26621;DHT22;14253;44.840;10.444;2024-02-15T04:10:14;3.90;99.90
26621;DHT22;14253;44.840;10.444;2024-02-15T04:12:43;3.90;99.90
26621;DHT22;14253;44.840;10.444;2024-02-15T04:15:09;3.90;99.90
26621;DHT22;14253;44.840;10.444;2024-02-15T04:17:39;3.80;99.90
26621;DHT22;14253;44.840;10.444;2024-02-15T04:20:06;3.80;99.90
26621;DHT22;14253;44.840;10.444;2024-02-15T04:22:33;3.70;99.90
26621;DHT22;14253;44.840;10.444;2024-02-15T04:25:05;3.80;99.90
26621;DHT22;14253;44.840;10.444;2024-02-15T04:27:35;3.80;99.90
26621;DHT22;14253;44.840;10.444;2024-02-15T04:30:02;3.70;99.90
26621;DHT22;14253;44.840;10.444;2024-02-15T04:32:29;3.70;99.90
26621;DHT22;14253;44.840;10.444;2024-02-15T04:34:59;3.80;99.90
26621;DHT22;14253;44.840;10.444;2024-02-15T04:37:25;3.80;99.90
26621;DHT22;14253;44.840;10.444;2024-02-15T04:39:58;3.80;99.90
26621;DHT22;14253;44.840;10.444;2024-02-15T04:42:24;3.70;99.90
26621;DHT22;14253;44.840;10.444;2024-02-15T04:44:52;3.60;99.90
26621;DHT22;14253;44.840;10.444;2024-02-15T04:47:20;3.60;99.90
26621;DHT22;14253;44.840;10.444;2024-02-15T04:49:46;3.60;99.90
26621;DHT22;14253;44.840;10.444;2024-02-15T04:52:12;3.50;99.90
26621;DHT22;14253;44.840;10.444;2024-02-15T04:54:37;3.50;99.90
26621;DHT22;14253;44.840;10.444;2024-02-15T04:57:03;3.50;99.90
26621;DHT22;14253;44.840;10.444;2024-02-15T04:59:29;3.40;99.90
26621;DHT22;14253;44.840;10.444;2024-02-15T05:01:56;3.40;99.90
26621;DHT22;14253;44.840;10.444;2024-02-15T05:04:22;3.30;99.90
26621;DHT22;14253;44.840;10.444;2024-02-15T05:06:50;3.40;99.90
26621;DHT22;14253;44.840;10.444;2024-02-15T05:09:16;3.40;99.90
26621;DHT22;14253;44.840;10.444;2024-02-15T05:11:44;3.50;99.90
26621;DHT22;14253;44.840;10.444;2024-02-15T05:14:14;3.50;99.90
26621;DHT22;14253;44.840;10.444;2024-02-15T05:16:47;3.60;99.90
26621;DHT22;14253;44.840;10.444;2024-02-15T05:19:17;3.50;99.90
26621;DHT22;14253;44.840;10.444;2024-02-15T05:21:46;3.50;99.90
26621;DHT22;14253;44.840;10.444;2024-02-15T05:24:13;3.50;99.90
26621;DHT22;14253;44.840;10.444;2024-02-15T05:26:44;3.50;99.90
26621;DHT22;14253;44.840;10.444;2024-02-15T05:29:18;3.50;99.90
26621;DHT22;14253;44.840;10.444;2024-02-15T05:31:47;3.60;99.90
26621;DHT22;14253;44.840;10.444;2024-02-15T05:34:16;3.60;99.90
26621;DHT22;14253;44.840;10.444;2024-02-15T05:36:42;3.70;99.90
26621;DHT22;14253;44.840;10.444;2024-02-15T05:39:08;3.60;99.90
26621;DHT22;14253;44.840;10.444;2024-02-15T05:41:37;3.60;99.90
26621;DHT22;14253;44.840;10.444;2024-02-15T05:44:03;3.60;99.90
26621;DHT22;14253;44.840;10.444;2024-02-15T05:46:33;3.60;99.90
26621;DHT22;14253;44.840;10.444;2024-02-15T05:49:03;3.60;99.90
26621;DHT22;14253;44.840;10.444;2024-02-15T05:51:30;3.60;99.90
26621;DHT22;14253;44.840;10.444;2024-02-15T05:53:57;3.50;99.90
26621;DHT22;14253;44.840;10.444;2024-02-15T05:56:26;3.50;99.90
26621;DHT22;14253;44.840;10.444;2024-02-15T05:58:54;3.40;99.90
26621;DHT22;14253;44.840;10.444;2024-02-15T06:01:20;3.40;99.90
26621;DHT22;14253;44.840;10.444;2024-02-15T06:03:46;3.40;99.90
26621;DHT22;14253;44.840;10.444;2024-02-15T06:06:13;3.40;99.90
26621;DHT22;14253;44.840;10.444;2024-02-15T06:08:39;3.40;99.90
26621;DHT22;14253;44.840;10.444;2024-02-15T06:11:05;3.30;99.90
26621;DHT22;14253;44.840;10.444;2024-02-15T06:13:32;3.40;99.90
26621;DHT22;14253;44.840;10.444;2024-02-15T06:15:58;3.40;99.90
26621;DHT22;14253;44.840;10.444;2024-02-15T06:18:26;3.40;99.90
26621;DHT22;14253;44.840;10.444;2024-02-15T06:20:57;3.40;99.90
26621;DHT22;14253;44.840;10.444;2024-02-15T06:23:23;3.40;99.90
26621;DHT22;14253;44.840;10.444;2024-02-15T06:25:52;3.40;99.90
26621;DHT22;14253;44.840;10.444;2024-02-15T06:28:24;3.40;99.90
26621;DHT22;14253;44.840;10.444;2024-02-15T06:31:10;3.40;99.90
26621;DHT22;14253;44.840;10.444;2024-02-15T06:33:54;3.40;99.90
26621;DHT22;14253;44.840;10.444;2024-02-15T06:36:49;3.40;99.90
26621;DHT22;14253;44.840;10.444;2024-02-15T06:39:34;3.50;99.90
26621;DHT22;14253;44.840;10.444;2024-02-15T06:42:16;3.50;99.90
26621;DHT22;14253;44.840;10.444;2024-02-15T06:44:48;3.50;99.90
26621;DHT22;14253;44.840;10.444;2024-02-15T06:47:14;3.60;99.90
26621;DHT22;14253;44.840;10.444;2024-02-15T06:49:45;3.70;99.90
26621;DHT22;14253;44.840;10.444;2024-02-15T06:52:11;3.70;99.90
26621;DHT22;14253;44.840;10.444;2024-02-15T06:54:38;3.70;99.90
26621;DHT22;14253;44.840;10.444;2024-02-15T06:57:05;3.80;99.90
26621;DHT22;14253;44.840;10.444;2024-02-15T06:59:31;4.00;99.90
26621;DHT22;14253;44.840;10.444;2024-02-15T07:01:58;4.10;99.90
26621;DHT22;14253;44.840;10.444;2024-02-15T07:04:24;4.30;99.90
26621;DHT22;14253;44.840;10.444;2024-02-15T07:06:53;4.40;99.90
26621;DHT22;14253;44.840;10.444;2024-02-15T07:09:20;4.60;99.90
26621;DHT22;14253;44.840;10.444;2024-02-15T07:11:50;4.80;99.90
26621;DHT22;14253;44.840;10.444;2024-02-15T07:14:16;5.00;99.90
26621;DHT22;14253;44.840;10.444;2024-02-15T07:16:46;5.00;99.90
26621;DHT22;14253;44.840;10.444;2024-02-15T07:19:13;4.90;99.90
26621;DHT22;14253;44.840;10.444;2024-02-15T07:21:41;4.80;99.90
26621;DHT22;14253;44.840;10.444;2024-02-15T07:24:07;4.80;99.90
26621;DHT22;14253;44.840;10.444;2024-02-15T07:26:33;4.90;99.90
26621;DHT22;14253;44.840;10.444;2024-02-15T07:29:02;5.00;99.90
26621;DHT22;14253;44.840;10.444;2024-02-15T07:31:32;5.00;99.90
26621;DHT22;14253;44.840;10.444;2024-02-15T07:34:01;5.10;99.90
26621;DHT22;14253;44.840;10.444;2024-02-15T07:36:29;5.20;99.90
26621;DHT22;14253;44.840;10.444;2024-02-15T07:38:55;5.40;99.90
26621;DHT22;14253;44.840;10.444;2024-02-15T07:41:26;5.50;99.90
26621;DHT22;14253;44.840;10.444;2024-02-15T07:43:53;5.60;99.90
26621;DHT22;14253;44.840;10.444;2024-02-15T07:46:21;5.70;99.90
26621;DHT22;14253;44.840;10.444;2024-02-15T07:48:47;5.80;99.90
26621;DHT22;14253;44.840;10.444;2024-02-15T07:51:17;6.10;99.90
26621;DHT22;14253;44.840;10.444;2024-02-15T07:53:46;6.30;99.90
26621;DHT22;14253;44.840;10.444;2024-02-15T07:56:14;6.50;99.90
26621;DHT22;14253;44.840;10.444;2024-02-15T07:58:42;6.80;99.90
26621;DHT22;14253;44.840;10.444;2024-02-15T08:01:12;7.10;99.90
26621;DHT22;14253;44.840;10.444;2024-02-15T08:03:39;7.30;99.90
26621;DHT22;14253;44.840;10.444;2024-02-15T08:06:10;7.40;99.90
26621;DHT22;14253;44.840;10.444;2024-02-15T08:08:47;7.70;99.90
26621;DHT22;14253;44.840;10.444;2024-02-15T08:11:14;7.90;99.90
26621;DHT22;14253;44.840;10.444;2024-02-15T08:13:58;7.90;99.90
26621;DHT22;14253;44.840;10.444;2024-02-15T08:16:27;8.00;99.90
26621;DHT22;14253;44.840;10.444;2024-02-15T08:18:56;8.10;99.90
26621;DHT22;14253;44.840;10.444;2024-02-15T08:21:26;8.10;99.90
26621;DHT22;14253;44.840;10.444;2024-02-15T08:23:55;8.30;99.90
26621;DHT22;14253;44.840;10.444;2024-02-15T08:26:25;8.50;99.90
26621;DHT22;14253;44.840;10.444;2024-02-15T08:28:52;8.50;99.90
26621;DHT22;14253;44.840;10.444;2024-02-15T08:31:23;8.60;99.90
26621;DHT22;14253;44.840;10.444;2024-02-15T08:33:50;8.60;99.90
26621;DHT22;14253;44.840;10.444;2024-02-15T08:36:16;8.70;99.90
26621;DHT22;14253;44.840;10.444;2024-02-15T08:38:43;8.80;99.90
26621;DHT22;14253;44.840;10.444;2024-02-15T08:41:11;8.80;99.90
26621;DHT22;14253;44.840;10.444;2024-02-15T08:43:37;8.80;99.90
26621;DHT22;14253;44.840;10.444;2024-02-15T08:46:06;8.90;99.90
26621;DHT22;14253;44.840;10.444;2024-02-15T08:48:33;8.90;99.90
26621;DHT22;14253;44.840;10.444;2024-02-15T08:50:59;9.00;99.90
26621;DHT22;14253;44.840;10.444;2024-02-15T08:53:25;8.90;99.90
26621;DHT22;14253;44.840;10.444;2024-02-15T08:55:54;8.90;99.90
26621;DHT22;14253;44.840;10.444;2024-02-15T08:58:22;9.00;99.90
26621;DHT22;14253;44.840;10.444;2024-02-15T09:00:48;9.10;99.90
26621;DHT22;14253;44.840;10.444;2024-02-15T09:03:14;9.10;99.90
26621;DHT22;14253;44.840;10.444;2024-02-15T09:05:41;9.20;99.90
26621;DHT22;14253;44.840;10.444;2024-02-15T09:08:07;9.20;99.90
26621;DHT22;14253;44.840;10.444;2024-02-15T09:10:33;9.30;99.90
26621;DHT22;14253;44.840;10.444;2024-02-15T09:12:59;9.30;99.90
26621;DHT22;14253;44.840;10.444;2024-02-15T09:15:25;9.40;99.90
26621;DHT22;14253;44.840;10.444;2024-02-15T09:17:51;9.40;99.90
26621;DHT22;14253;44.840;10.444;2024-02-15T09:20:20;9.40;99.90
26621;DHT22;14253;44.840;10.444;2024-02-15T09:22:51;9.40;99.90
26621;DHT22;14253;44.840;10.444;2024-02-15T09:25:18;9.50;99.90
26621;DHT22;14253;44.840;10.444;2024-02-15T09:27:44;9.60;99.90
26621;DHT22;14253;44.840;10.444;2024-02-15T09:30:12;9.50;99.90
26621;DHT22;14253;44.840;10.444;2024-02-15T09:32:39;9.60;99.90
26621;DHT22;14253;44.840;10.444;2024-02-15T09:35:06;9.50;99.90
26621;DHT22;14253;44.840;10.444;2024-02-15T09:37:36;9.70;99.90
26621;DHT22;14253;44.840;10.444;2024-02-15T09:40:09;9.80;99.90
26621;DHT22;14253;44.840;10.444;2024-02-15T09:42:36;9.90;99.90
26621;DHT22;14253;44.840;10.444;2024-02-15T09:45:08;9.80;99.90
26621;DHT22;14253;44.840;10.444;2024-02-15T09:47:39;9.90;99.90
26621;DHT22;14253;44.840;10.444;2024-02-15T09:50:17;9.90;99.90
26621;DHT22;14253;44.840;10.444;2024-02-15T09:52:49;10.00;99.90
26621;DHT22;14253;44.840;10.444;2024-02-15T09:55:16;10.20;99.90
26621;DHT22;14253;44.840;10.444;2024-02-15T09:57:44;10.20;99.90
26621;DHT22;14253;44.840;10.444;2024-02-15T10:00:12;10.40;99.90
26621;DHT22;14253;44.840;10.444;2024-02-15T10:02:49;10.30;99.90
26621;DHT22;14253;44.840;10.444;2024-02-15T10:05:17;10.40;99.90
26621;DHT22;14253;44.840;10.444;2024-02-15T10:07:45;10.50;99.90
26621;DHT22;14253;44.840;10.444;2024-02-15T10:12:42;10.80;99.90
26621;DHT22;14253;44.840;10.444;2024-02-15T10:15:09;10.90;99.90
26621;DHT22;14253;44.840;10.444;2024-02-15T10:17:35;11.00;99.90
26621;DHT22;14253;44.840;10.444;2024-02-15T10:20:06;11.00;99.90
26621;DHT22;14253;44.840;10.444;2024-02-15T10:22:32;11.10;99.90
26621;DHT22;14253;44.840;10.444;2024-02-15T10:25:27;11.10;99.90
26621;DHT22;14253;44.840;10.444;2024-02-15T10:28:07;11.20;99.90
26621;DHT22;14253;44.840;10.444;2024-02-15T10:30:40;11.30;99.90
26621;DHT22;14253;44.840;10.444;2024-02-15T10:33:27;11.40;99.90
26621;DHT22;14253;44.840;10.444;2024-02-15T10:36:07;11.50;99.90
26621;DHT22;14253;44.840;10.444;2024-02-15T10:38:40;11.70;99.90
26621;DHT22;14253;44.840;10.444;2024-02-15T10:41:07;11.90;99.90
26621;DHT22;14253;44.840;10.444;2024-02-15T10:43:34;12.00;99.90
26621;DHT22;14253;44.840;10.444;2024-02-15T10:46:00;12.00;99.90
26621;DHT22;14253;44.840;10.444;2024-02-15T10:48:27;12.00;99.90
26621;DHT22;14253;44.840;10.444;2024-02-15T10:51:03;12.20;99.90
26621;DHT22;14253;44.840;10.444;2024-02-15T10:53:35;12.30;99.90
26621;DHT22;14253;44.840;10.444;2024-02-15T10:58:40;12.30;99.90
26621;DHT22;14253;44.840;10.444;2024-02-15T11:01:10;12.40;99.90
26621;DHT22;14253;44.840;10.444;2024-02-15T11:03:48;12.40;99.90
26621;DHT22;14253;44.840;10.444;2024-02-15T11:06:19;12.40;99.90
26621;DHT22;14253;44.840;10.444;2024-02-15T11:08:48;12.40;99.90
26621;DHT22;14253;44.840;10.444;2024-02-15T11:11:14;12.50;99.90
26621;DHT22;14253;44.840;10.444;2024-02-15T11:13:40;12.50;99.90
26621;DHT22;14253;44.840;10.444;2024-02-15T11:16:08;12.60;99.90
26621;DHT22;14253;44.840;10.444;2024-02-15T11:18:45;12.60;99.90
26621;DHT22;14253;44.840;10.444;2024-02-15T11:21:55;12.70;99.90
26621;DHT22;14253;44.840;10.444;2024-02-15T11:24:26;12.90;99.90
26621;DHT22;14253;44.840;10.444;2024-02-15T11:27:03;13.20;99.90
26621;DHT22;14253;44.840;10.444;2024-02-15T11:32:37;13.50;99.90
26621;DHT22;14253;44.840;10.444;2024-02-15T11:35:19;13.60;99.90
26621;DHT22;14253;44.840;10.444;2024-02-15T11:40:21;13.90;99.90
26621;DHT22;14253;44.840;10.444;2024-02-15T11:42:57;14.20;99.90
26621;DHT22;14253;44.840;10.444;2024-02-15T11:45:27;14.40;99.90
26621;DHT22;14253;44.840;10.444;2024-02-15T11:47:59;14.40;99.90
26621;DHT22;14253;44.840;10.444;2024-02-15T11:50:28;14.40;99.90
26621;DHT22;14253;44.840;10.444;2024-02-15T11:53:03;14.50;99.90
26621;DHT22;14253;44.840;10.444;2024-02-15T11:55:36;14.60;99.90
26621;DHT22;14253;44.840;10.444;2024-02-15T11:58:03;14.60;99.90
26621;DHT22;14253;44.840;10.444;2024-02-15T12:00:36;14.60;99.90
26621;DHT22;14253;44.840;10.444;2024-02-15T12:03:22;14.80;99.90
26621;DHT22;14253;44.840;10.444;2024-02-15T12:06:06;14.90;99.90
26621;DHT22;14253;44.840;10.444;2024-02-15T12:08:53;14.90;99.90
26621;DHT22;14253;44.840;10.444;2024-02-15T12:11:38;14.90;99.90
26621;DHT22;14253;44.840;10.444;2024-02-15T12:14:23;14.80;99.90
26621;DHT22;14253;44.840;10.444;2024-02-15T12:17:09;14.80;99.90
26621;DHT22;14253;44.840;10.444;2024-02-15T12:19:55;14.80;99.90
26621;DHT22;14253;44.840;10.444;2024-02-15T12:22:36;14.70;99.90
26621;DHT22;14253;44.840;10.444;2024-02-15T12:25:06;14.80;99.90
26621;DHT22;14253;44.840;10.444;2024-02-15T12:27:43;14.90;99.90
26621;DHT22;14253;44.840;10.444;2024-02-15T12:30:17;14.90;99.90
26621;DHT22;14253;44.840;10.444;2024-02-15T12:32:47;15.10;99.90
26621;DHT22;14253;44.840;10.444;2024-02-15T12:35:15;15.30;99.90
26621;DHT22;14253;44.840;10.444;2024-02-15T12:37:47;15.30;99.90
26621;DHT22;14253;44.840;10.444;2024-02-15T12:40:16;15.40;99.90
26621;DHT22;14253;44.840;10.444;2024-02-15T12:42:46;15.30;99.90
26621;DHT22;14253;44.840;10.444;2024-02-15T12:45:20;15.40;99.90
26621;DHT22;14253;44.840;10.444;2024-02-15T12:47:51;15.40;99.90
26621;DHT22;14253;44.840;10.444;2024-02-15T12:50:19;15.30;99.90
26621;DHT22;14253;44.840;10.444;2024-02-15T12:52:46;15.20;99.90
26621;DHT22;14253;44.840;10.444;2024-02-15T12:55:22;15.20;99.90
26621;DHT22;14253;44.840;10.444;2024-02-15T12:57:52;15.10;99.90
26621;DHT22;14253;44.840;10.444;2024-02-15T13:00:22;15.10;99.90
26621;DHT22;14253;44.840;10.444;2024-02-15T13:02:54;14.90;99.90
26621;DHT22;14253;44.840;10.444;2024-02-15T13:05:25;14.90;99.90
26621;DHT22;14253;44.840;10.444;2024-02-15T13:07:53;14.90;99.90
26621;DHT22;14253;44.840;10.444;2024-02-15T13:10:24;15.00;99.90
26621;DHT22;14253;44.840;10.444;2024-02-15T13:12:52;15.20;99.90
26621;DHT22;14253;44.840;10.444;2024-02-15T13:15:19;15.30;99.90
26621;DHT22;14253;44.840;10.444;2024-02-15T13:17:53;15.60;99.90
26621;DHT22;14253;44.840;10.444;2024-02-15T13:20:20;15.80;99.90
26621;DHT22;14253;44.840;10.444;2024-02-15T13:22:55;15.90;99.90
26621;DHT22;14253;44.840;10.444;2024-02-15T13:25:26;16.20;99.90
26621;DHT22;14253;44.840;10.444;2024-02-15T13:27:51;16.20;99.90
26621;DHT22;14253;44.840;10.444;2024-02-15T13:30:18;16.20;99.90
26621;DHT22;14253;44.840;10.444;2024-02-15T13:32:49;16.30;99.90
26621;DHT22;14253;44.840;10.444;2024-02-15T13:35:18;16.40;99.90
26621;DHT22;14253;44.840;10.444;2024-02-15T13:37:51;16.50;99.90
26621;DHT22;14253;44.840;10.444;2024-02-15T13:40:21;16.60;99.90
26621;DHT22;14253;44.840;10.444;2024-02-15T13:42:54;16.40;99.90
26621;DHT22;14253;44.840;10.444;2024-02-15T13:45:32;16.40;99.90
26621;DHT22;14253;44.840;10.444;2024-02-15T13:47:59;16.40;99.90
26621;DHT22;14253;44.840;10.444;2024-02-15T13:50:29;16.40;99.90
26621;DHT22;14253;44.840;10.444;2024-02-15T13:52:55;16.50;99.90
26621;DHT22;14253;44.840;10.444;2024-02-15T13:55:21;16.50;99.90
26621;DHT22;14253;44.840;10.444;2024-02-15T13:57:48;16.50;99.90
26621;DHT22;14253;44.840;10.444;2024-02-15T14:00:17;16.40;99.90
26621;DHT22;14253;44.840;10.444;2024-02-15T14:03:02;16.40;99.90
26621;DHT22;14253;44.840;10.444;2024-02-15T14:05:29;16.40;99.90
26621;DHT22;14253;44.840;10.444;2024-02-15T14:07:59;16.20;99.90
26621;DHT22;14253;44.840;10.444;2024-02-15T14:10:27;16.00;99.90
26621;DHT22;14253;44.840;10.444;2024-02-15T14:12:54;15.90;99.90
26621;DHT22;14253;44.840;10.444;2024-02-15T14:15:24;15.70;99.90
26621;DHT22;14253;44.840;10.444;2024-02-15T14:17:50;15.60;99.90
26621;DHT22;14253;44.840;10.444;2024-02-15T14:20:16;15.50;99.90
26621;DHT22;14253;44.840;10.444;2024-02-15T14:22:47;15.50;99.90
26621;DHT22;14253;44.840;10.444;2024-02-15T14:25:32;15.50;99.90
26621;DHT22;14253;44.840;10.444;2024-02-15T14:27:58;15.40;99.90
26621;DHT22;14253;44.840;10.444;2024-02-15T14:30:25;15.40;99.90
26621;DHT22;14253;44.840;10.444;2024-02-15T14:33:09;15.30;99.90
26621;DHT22;14253;44.840;10.444;2024-02-15T14:35:39;15.10;99.90
26621;DHT22;14253;44.840;10.444;2024-02-15T14:38:07;15.00;99.90
26621;DHT22;14253;44.840;10.444;2024-02-15T14:40:42;14.90;99.90
26621;DHT22;14253;44.840;10.444;2024-02-15T14:43:13;14.90;99.90
26621;DHT22;14253;44.840;10.444;2024-02-15T14:45:41;14.70;99.90
26621;DHT22;14253;44.840;10.444;2024-02-15T14:48:08;14.60;99.90
26621;DHT22;14253;44.840;10.444;2024-02-15T14:50:39;14.50;99.90
26621;DHT22;14253;44.840;10.444;2024-02-15T14:53:05;14.40;99.90
26621;DHT22;14253;44.840;10.444;2024-02-15T14:55:34;14.30;99.90
26621;DHT22;14253;44.840;10.444;2024-02-15T14:58:00;14.20;99.90
26621;DHT22;14253;44.840;10.444;2024-02-15T15:00:26;14.10;99.90
26621;DHT22;14253;44.840;10.444;2024-02-15T15:02:53;14.10;99.90
26621;DHT22;14253;44.840;10.444;2024-02-15T15:05:22;14.00;99.90
26621;DHT22;14253;44.840;10.444;2024-02-15T15:08:06;14.00;99.90
26621;DHT22;14253;44.840;10.444;2024-02-15T15:10:51;13.90;99.90
26621;DHT22;14253;44.840;10.444;2024-02-15T15:13:36;13.90;99.90
26621;DHT22;14253;44.840;10.444;2024-02-15T15:16:03;13.90;99.90
26621;DHT22;14253;44.840;10.444;2024-02-15T15:18:29;14.00;99.90
26621;DHT22;14253;44.840;10.444;2024-02-15T15:21:00;14.10;99.90
26621;DHT22;14253;44.840;10.444;2024-02-15T15:23:27;14.40;99.90
26621;DHT22;14253;44.840;10.444;2024-02-15T15:25:57;14.60;99.90
26621;DHT22;14253;44.840;10.444;2024-02-15T15:28:23;14.70;99.90
26621;DHT22;14253;44.840;10.444;2024-02-15T15:30:50;14.90;99.90
26621;DHT22;14253;44.840;10.444;2024-02-15T15:33:17;15.10;99.90
26621;DHT22;14253;44.840;10.444;2024-02-15T15:35:44;15.30;99.90
26621;DHT22;14253;44.840;10.444;2024-02-15T15:38:13;15.30;99.90
26621;DHT22;14253;44.840;10.444;2024-02-15T15:40:39;15.10;99.90
26621;DHT22;14253;44.840;10.444;2024-02-15T15:43:06;14.90;99.90
26621;DHT22;14253;44.840;10.444;2024-02-15T15:45:35;14.70;99.90
26621;DHT22;14253;44.840;10.444;2024-02-15T15:48:06;14.50;99.90
26621;DHT22;14253;44.840;10.444;2024-02-15T15:50:32;14.30;99.90
26621;DHT22;14253;44.840;10.444;2024-02-15T15:53:04;14.20;99.90
26621;DHT22;14253;44.840;10.444;2024-02-15T15:55:31;14.00;99.90
26621;DHT22;14253;44.840;10.444;2024-02-15T15:57:57;13.80;99.90
26621;DHT22;14253;44.840;10.444;2024-02-15T16:00:23;13.60;99.90
26621;DHT22;14253;44.840;10.444;2024-02-15T16:02:50;13.50;99.90
26621;DHT22;14253;44.840;10.444;2024-02-15T16:05:18;13.30;99.90
26621;DHT22;14253;44.840;10.444;2024-02-15T16:07:45;13.20;99.90
26621;DHT22;14253;44.840;10.444;2024-02-15T16:10:12;13.00;99.90
26621;DHT22;14253;44.840;10.444;2024-02-15T16:12:42;12.90;99.90